Time;durP1;ratioP1;P1;durP2;ratioP2;P2;SDS_P1;SDS_P2;PMS_P1;PMS_P2;Temp;Humidity;BMP_temperature;BMP_pressure;BME280_temperature;BME280_humidity;BME280_pressure;Samples;Min_cycle;Max_cycle;Signal;HPM_P1;HPM_P2
2022/09/30 00:01:32;;;;;;;6.63;4.45;;;;;;;9.32;42.91;100387.16;5047773;28;20044;-68
2022/09/30 00:04:00;;;;;;;6.18;4.00;;;;;;;9.30;43.18;100383.69;5054825;28;20072;-67
2022/09/30 00:06:30;;;;;;;6.13;4.10;;;;;;;9.29;42.93;100391.03;5052025;28;20071;-68
2022/09/30 00:08:59;;;;;;;6.13;4.07;;;;;;;9.27;43.20;100378.50;5058836;28;20063;-68
2022/09/30 00:11:28;;;;;;;7.47;4.50;;;;;;;9.25;42.83;100386.81;5065341;28;20139;-68
2022/09/30 00:13:57;;;;;;;7.68;4.60;;;;;;;9.22;43.11;100380.78;5062936;28;20045;-68
2022/09/30 00:16:28;;;;;;;6.03;3.88;;;;;;;9.21;42.91;100387.25;5055196;28;20057;-68
2022/09/30 00:18:59;;;;;;;6.10;4.03;;;;;;;9.19;42.93;100400.16;5064989;28;20136;-68
2022/09/30 00:21:28;;;;;;;5.57;4.00;;;;;;;9.17;42.98;100403.03;5063941;28;20111;-68
2022/09/30 00:23:58;;;;;;;6.57;4.43;;;;;;;9.14;43.32;100402.44;5058636;28;20033;-68
2022/09/30 00:26:26;;;;;;;6.28;4.40;;;;;;;9.13;43.09;100408.91;5060322;28;20045;-68
2022/09/30 00:28:56;;;;;;;8.73;4.68;;;;;;;9.12;43.08;100407.19;5044688;28;20179;-68
2022/09/30 00:31:26;;;;;;;6.25;4.20;;;;;;;9.09;43.32;100403.72;5061446;28;20044;-68
2022/09/30 00:34:06;;;;;;;6.03;4.25;;;;;;;9.07;43.03;100411.19;5054878;28;20045;-68
2022/09/30 00:36:42;;;;;;;7.00;4.10;;;;;;;9.06;43.47;100409.47;5062104;28;20574;-68
2022/09/30 00:39:14;;;;;;;6.80;4.20;;;;;;;9.06;43.29;100406.72;5060182;28;20048;-67
2022/09/30 00:41:42;;;;;;;7.80;4.45;;;;;;;9.05;43.20;100404.13;5064269;28;20497;-68
2022/09/30 00:44:51;;;;;;;6.53;4.40;;;;;;;9.03;43.84;100403.41;5065471;28;20069;-67
2022/09/30 00:47:48;;;;;;;6.72;4.50;;;;;;;8.98;43.98;100401.09;5065038;28;20102;-69
2022/09/30 00:50:27;;;;;;;7.00;4.18;;;;;;;8.99;43.86;100407.41;5059973;28;20052;-70
2022/09/30 00:53:05;;;;;;;5.88;3.92;;;;;;;8.96;43.80;100407.66;5059497;28;20037;-69
2022/09/30 00:55:44;;;;;;;6.65;4.30;;;;;;;8.96;43.78;100411.25;5056460;28;20131;-69
2022/09/30 00:58:18;;;;;;;6.07;4.40;;;;;;;8.93;43.87;100413.38;5047057;28;20045;-69
2022/09/30 01:00:46;;;;;;;6.60;4.28;;;;;;;8.90;43.84;100405.50;5052819;28;20041;-67
2022/09/30 01:03:14;;;;;;;6.82;4.65;;;;;;;8.88;43.70;100405.63;5072059;28;20046;-68
2022/09/30 01:05:42;;;;;;;6.35;4.03;;;;;;;8.88;43.63;100408.34;5063106;28;20136;-69
2022/09/30 01:08:13;;;;;;;6.57;4.20;;;;;;;8.86;44.00;100407.59;5062103;28;20107;-69
2022/09/30 01:10:41;;;;;;;6.15;4.30;;;;;;;8.84;43.78;100406.00;5063552;28;20295;-70
2022/09/30 01:13:09;;;;;;;6.22;4.40;;;;;;;8.83;43.38;100417.94;5070347;28;20052;-69
2022/09/30 01:15:51;;;;;;;6.18;4.13;;;;;;;8.83;43.99;100410.63;5053403;28;20063;-69
2022/09/30 01:18:29;;;;;;;6.60;4.30;;;;;;;8.80;44.37;100415.47;5070271;28;20603;-69
2022/09/30 01:21:23;;;;;;;6.68;4.40;;;;;;;8.79;44.33;100416.47;5071422;28;20496;-70
2022/09/30 01:24:13;;;;;;;6.40;4.55;;;;;;;8.78;44.25;100415.59;5067249;28;20051;-67
2022/09/30 01:27:01;;;;;;;7.18;4.40;;;;;;;8.75;44.14;100407.69;5064109;28;20053;-68
2022/09/30 01:29:56;;;;;;;5.95;3.88;;;;;;;8.74;44.28;100421.47;5068569;28;20119;-68
2022/09/30 01:32:45;;;;;;;7.68;4.38;;;;;;;8.74;44.39;100427.78;5032719;28;20059;-68
2022/09/30 01:35:25;;;;;;;7.95;4.55;;;;;;;8.73;44.09;100427.91;5052334;28;20119;-68
2022/09/30 01:38:03;;;;;;;7.55;4.43;;;;;;;8.73;43.99;100430.66;5058249;28;20124;-68
2022/09/30 01:40:39;;;;;;;6.32;4.15;;;;;;;8.71;44.09;100434.38;5056296;28;20070;-67
2022/09/30 01:43:12;;;;;;;5.80;4.25;;;;;;;8.71;43.75;100428.91;5057175;28;20040;-68
2022/09/30 01:45:46;;;;;;;5.55;4.20;;;;;;;8.71;43.67;100438.97;5060403;28;20493;-68
2022/09/30 01:48:22;;;;;;;6.10;4.13;;;;;;;8.71;43.85;100439.81;5064355;28;20408;-68
2022/09/30 01:50:57;;;;;;;5.65;4.43;;;;;;;8.70;44.07;100435.38;5055363;28;20573;-68
2022/09/30 01:53:35;;;;;;;5.90;4.10;;;;;;;8.70;43.81;100438.09;5057500;28;20075;-68
2022/09/30 01:56:11;;;;;;;6.47;4.03;;;;;;;8.69;43.86;100440.94;5082859;28;20054;-68
2022/09/30 01:58:46;;;;;;;9.05;4.50;;;;;;;8.67;43.84;100441.06;5078710;28;20524;-68
2022/09/30 02:01:21;;;;;;;6.72;4.43;;;;;;;8.66;43.77;100442.09;5061181;28;20580;-68
2022/09/30 02:03:55;;;;;;;6.57;4.35;;;;;;;8.65;44.13;100442.22;5056886;28;20273;-68
2022/09/30 02:06:26;;;;;;;6.35;4.20;;;;;;;8.63;43.65;100445.09;5063321;28;20052;-69
2022/09/30 02:08:59;;;;;;;6.40;4.13;;;;;;;8.62;44.01;100439.75;5055935;28;20044;-68
2022/09/30 02:11:29;;;;;;;6.70;4.30;;;;;;;8.59;43.93;100437.28;5062983;28;20044;-68
2022/09/30 02:14:01;;;;;;;6.22;4.10;;;;;;;8.58;43.78;100430.97;5058195;28;20749;-68
2022/09/30 02:16:38;;;;;;;7.25;4.15;;;;;;;8.58;44.07;100430.97;5069860;28;20072;-69
2022/09/30 02:19:19;;;;;;;6.40;4.22;;;;;;;8.57;43.94;100425.66;5047887;28;20059;-68
2022/09/30 02:21:54;;;;;;;5.05;3.80;;;;;;;8.54;44.12;100424.03;5065253;28;20045;-67
2022/09/30 02:24:24;;;;;;;5.45;3.90;;;;;;;8.52;43.78;100427.91;5050838;28;20060;-68
2022/09/30 02:26:56;;;;;;;7.55;4.57;;;;;;;8.51;43.85;100428.88;5061937;28;20053;-68
2022/09/30 02:29:31;;;;;;;6.13;4.07;;;;;;;8.49;43.85;100429.03;5044103;28;20046;-68
2022/09/30 02:32:04;;;;;;;6.05;3.92;;;;;;;8.46;44.39;100429.28;5052950;28;20452;-70
2022/09/30 02:34:34;;;;;;;;;;;;;;;8.19;44.98;100437.09;5066061;28;20166;-69
2022/09/30 02:37:07;;;;;;;7.07;3.95;;;;;;;8.38;44.07;100441.84;5066143;28;19998;-69
2022/09/30 02:39:42;;;;;;;6.38;4.10;;;;;;;8.38;44.50;100440.00;5040234;28;20044;-69
2022/09/30 02:42:15;;;;;;;6.63;4.32;;;;;;;8.37;44.10;100448.28;5050951;28;20561;-69
2022/09/30 02:44:43;;;;;;;5.60;4.20;;;;;;;8.34;44.16;100444.00;5055702;28;20044;-69
2022/09/30 02:47:16;;;;;;;5.40;3.85;;;;;;;8.34;44.03;100444.00;5055603;28;20037;-69
2022/09/30 02:49:47;;;;;;;;;;;;;;;8.09;45.11;100447.03;5054973;28;20040;-69
2022/09/30 02:52:25;;;;;;;5.90;3.80;;;;;;;8.28;44.63;100445.34;5051298;28;20373;-69
2022/09/30 02:55:07;;;;;;;5.38;3.85;;;;;;;8.31;44.52;100445.09;5052932;28;20039;-69
2022/09/30 02:57:42;;;;;;;5.55;3.83;;;;;;;8.28;44.69;100441.75;5043081;28;20061;-69
2022/09/30 03:00:12;;;;;;;5.80;4.05;;;;;;;8.25;44.16;100439.31;5060969;28;20048;-69
2022/09/30 03:02:40;;;;;;;5.75;4.00;;;;;;;8.25;44.35;100436.59;5060871;28;20033;-69
2022/09/30 03:05:10;;;;;;;5.80;4.22;;;;;;;8.23;44.57;100449.47;5064993;28;20404;-68
2022/09/30 03:07:40;;;;;;;6.20;4.13;;;;;;;8.20;44.16;100445.13;5063137;28;20048;-69
2022/09/30 03:10:13;;;;;;;7.78;4.45;;;;;;;8.21;44.85;100457.78;5063975;28;20416;-69
2022/09/30 03:12:56;;;;;;;7.65;4.22;;;;;;;8.20;44.74;100455.16;5063200;28;20106;-67
2022/09/30 03:15:35;;;;;;;6.03;4.07;;;;;;;8.18;44.73;100451.69;5054759;28;20093;-68
2022/09/30 03:18:24;;;;;;;5.35;4.15;;;;;;;8.17;44.88;100444.56;5063823;28;20047;-68
2022/09/30 03:21:08;;;;;;;6.95;4.63;;;;;;;8.15;44.82;100450.13;5041495;28;20500;-68
2022/09/30 03:23:51;;;;;;;5.70;4.15;;;;;;;8.14;44.88;100456.56;5055003;28;20377;-68
2022/09/30 03:26:26;;;;;;;;;;;;;;;7.88;45.45;100460.56;5063422;28;20131;-69
2022/09/30 03:29:08;;;;;;;5.28;3.80;;;;;;;8.10;45.16;100465.06;5065683;28;20019;-68
2022/09/30 03:31:49;;;;;;;5.80;4.28;;;;;;;8.11;44.85;100466.81;5061246;28;20067;-69
2022/09/30 03:34:26;;;;;;;6.32;4.15;;;;;;;8.12;44.67;100474.00;5054204;28;20045;-68
2022/09/30 03:37:02;;;;;;;6.20;4.05;;;;;;;8.12;45.07;100468.53;5046331;28;20049;-68
2022/09/30 03:39:47;;;;;;;6.07;3.83;;;;;;;8.11;44.99;100472.25;5064846;28;20048;-68
2022/09/30 03:42:18;;;;;;;6.35;4.47;;;;;;;8.08;44.73;100472.53;5041026;28;20044;-68
2022/09/30 03:45:01;;;;;;;7.18;4.35;;;;;;;8.11;44.85;100472.25;5059690;28;20135;-69
2022/09/30 03:47:32;;;;;;;5.20;3.80;;;;;;;8.08;44.61;100476.13;5058226;28;20176;-68
2022/09/30 03:50:03;;;;;;;6.65;4.45;;;;;;;8.08;44.88;100478.84;5057710;28;20048;-69
2022/09/30 03:52:34;;;;;;;5.72;4.10;;;;;;;8.08;44.55;100486.16;5062138;28;20055;-68
2022/09/30 03:55:06;;;;;;;6.20;3.83;;;;;;;8.08;44.41;100483.44;5059048;28;20064;-68
2022/09/30 03:57:34;;;;;;;5.10;3.45;;;;;;;8.05;44.76;100489.13;5059529;28;20492;-69
2022/09/30 04:00:04;;;;;;;5.43;4.20;;;;;;;8.06;44.59;100494.47;5056344;28;20041;-69
2022/09/30 04:02:36;;;;;;;6.55;4.28;;;;;;;8.05;44.48;100491.84;5048880;28;20663;-69
2022/09/30 04:05:06;;;;;;;5.95;3.97;;;;;;;8.03;44.38;100494.72;5058171;28;20063;-69
2022/09/30 04:07:35;;;;;;;5.20;3.88;;;;;;;8.05;44.85;100497.31;5046299;28;20040;-69
2022/09/30 04:10:04;;;;;;;5.13;3.97;;;;;;;8.02;44.47;100490.25;5051680;28;20037;-69
2022/09/30 04:12:32;;;;;;;6.85;4.47;;;;;;;7.99;44.53;100487.78;5056211;28;20056;-69
2022/09/30 04:15:00;;;;;;;5.70;4.32;;;;;;;7.99;44.52;100485.06;5061191;28;20036;-69
2022/09/30 04:17:27;;;;;;;5.93;4.32;;;;;;;7.96;44.65;100493.47;5050551;28;20049;-69
2022/09/30 04:19:55;;;;;;;5.93;4.20;;;;;;;7.95;44.77;100494.47;5052653;28;20061;-69
2022/09/30 04:22:23;;;;;;;6.18;4.30;;;;;;;7.92;44.69;100500.19;5050367;28;20086;-69
2022/09/30 04:24:54;;;;;;;5.72;4.20;;;;;;;7.90;44.86;100503.03;5060797;28;20076;-68
2022/09/30 04:27:22;;;;;;;7.57;4.32;;;;;;;7.86;44.72;100501.53;5057193;28;20071;-68
2022/09/30 04:29:50;;;;;;;5.40;4.20;;;;;;;7.85;44.94;100515.28;5060727;28;20068;-68
2022/09/30 04:32:18;;;;;;;4.97;3.80;;;;;;;7.83;44.82;100520.88;5057061;28;20049;-68
2022/09/30 04:34:45;;;;;;;5.53;3.75;;;;;;;7.82;44.99;100521.00;5058472;28;20071;-68
2022/09/30 04:37:14;;;;;;;6.07;4.30;;;;;;;7.80;45.27;100526.56;5053196;28;20106;-68
2022/09/30 04:39:43;;;;;;;5.18;4.13;;;;;;;7.79;45.06;100523.97;5030161;28;20063;-67
2022/09/30 04:42:12;;;;;;;7.10;4.10;;;;;;;7.81;45.39;100527.44;5055221;28;20044;-68
2022/09/30 04:44:40;;;;;;;5.85;3.80;;;;;;;7.79;45.32;100522.13;5068911;28;20461;-67
2022/09/30 04:47:08;;;;;;;6.97;4.53;;;;;;;7.78;44.98;100523.09;5052147;28;20505;-67
2022/09/30 04:49:35;;;;;;;5.50;3.92;;;;;;;7.78;45.29;100524.94;5057696;28;20041;-67
2022/09/30 04:52:03;;;;;;;6.18;3.80;;;;;;;7.76;45.22;100518.78;5060300;28;20094;-68
2022/09/30 04:54:31;;;;;;;5.22;3.92;;;;;;;7.74;45.28;100527.06;5050679;28;20132;-67
2022/09/30 04:56:59;;;;;;;5.22;3.92;;;;;;;7.72;45.04;100526.31;5056108;28;20052;-67
2022/09/30 04:59:28;;;;;;;7.25;4.40;;;;;;;7.72;45.36;100530.91;5058350;28;20036;-67
2022/09/30 05:01:56;;;;;;;6.55;4.10;;;;;;;7.70;45.27;100524.72;5061542;28;20049;-67
2022/09/30 05:04:24;;;;;;;5.20;3.63;;;;;;;7.69;45.47;100533.88;5067745;28;20119;-67
2022/09/30 05:06:51;;;;;;;6.80;4.30;;;;;;;7.67;45.25;100535.88;5062193;28;20106;-68
2022/09/30 05:09:19;;;;;;;6.07;4.30;;;;;;;7.65;45.15;100549.63;5069803;28;20128;-67
2022/09/30 05:11:47;;;;;;;6.18;4.05;;;;;;;7.65;45.18;100546.03;5063496;28;20040;-67
2022/09/30 05:14:15;;;;;;;6.72;3.90;;;;;;;7.65;45.35;100543.28;5067477;28;20052;-67
2022/09/30 05:16:44;;;;;;;5.72;3.65;;;;;;;7.67;45.37;100549.50;5062853;28;20338;-67
2022/09/30 05:19:12;;;;;;;5.97;4.30;;;;;;;7.63;45.53;100537.97;5061743;28;20072;-67
2022/09/30 05:21:43;;;;;;;7.25;4.50;;;;;;;7.64;45.41;100538.84;5057924;28;20496;-67
2022/09/30 05:24:11;;;;;;;5.43;4.32;;;;;;;7.61;45.23;100542.66;5054425;28;20184;-67
2022/09/30 05:26:39;;;;;;;5.65;4.25;;;;;;;7.62;45.28;100546.25;5060360;28;20044;-67
2022/09/30 05:29:07;;;;;;;6.30;4.47;;;;;;;7.60;45.30;100554.53;5068695;28;20050;-67
2022/09/30 05:31:35;;;;;;;5.35;4.35;;;;;;;7.59;45.27;100555.56;5067942;28;20458;-67
2022/09/30 05:34:05;;;;;;;6.50;4.25;;;;;;;7.60;45.39;100553.69;5063996;28;20115;-67
2022/09/30 05:36:32;;;;;;;7.35;4.30;;;;;;;7.56;45.54;100559.38;5052839;28;20045;-67
2022/09/30 05:39:00;;;;;;;6.35;3.97;;;;;;;7.56;45.42;100572.13;5054782;28;20052;-67
2022/09/30 05:41:28;;;;;;;5.63;4.25;;;;;;;7.56;45.44;100583.88;5046086;28;20057;-67
2022/09/30 05:43:59;;;;;;;6.95;4.30;;;;;;;7.55;45.49;100593.03;5054988;28;20124;-67
2022/09/30 05:46:28;;;;;;;5.60;4.03;;;;;;;7.55;45.56;100593.03;5046883;28;20041;-67
2022/09/30 05:48:56;;;;;;;6.70;4.18;;;;;;;7.57;45.38;100593.81;5053015;28;20055;-66
2022/09/30 05:51:25;;;;;;;4.90;3.85;;;;;;;7.60;45.61;100605.44;5048891;28;20047;-69
2022/09/30 05:53:53;;;;;;;6.80;4.13;;;;;;;7.60;45.74;100602.72;5055112;28;20040;-68
2022/09/30 05:56:21;;;;;;;5.57;3.97;;;;;;;7.61;45.81;100605.31;5051061;28;20045;-69
2022/09/30 05:58:49;;;;;;;6.57;4.55;;;;;;;7.63;45.92;100605.19;5063495;28;20056;-69
2022/09/30 06:01:17;;;;;;;6.95;4.22;;;;;;;7.63;45.89;100611.50;5062669;28;20118;-69
2022/09/30 06:03:46;;;;;;;7.57;4.50;;;;;;;7.65;45.85;100612.25;5065270;28;20028;-69
2022/09/30 06:06:15;;;;;;;6.43;4.30;;;;;;;7.64;45.70;100610.50;5062152;28;20103;-69
2022/09/30 06:08:45;;;;;;;6.85;4.30;;;;;;;7.67;45.78;100610.28;5053360;28;20620;-69
2022/09/30 06:11:16;;;;;;;6.53;4.57;;;;;;;7.68;45.78;100613.88;5055314;28;20056;-69
2022/09/30 06:13:46;;;;;;;5.88;4.05;;;;;;;7.69;45.66;100612.84;5060051;28;20056;-69
2022/09/30 06:16:14;;;;;;;8.20;5.05;;;;;;;7.68;45.87;100614.75;5064020;28;20117;-68
2022/09/30 06:18:42;;;;;;;6.50;4.60;;;;;;;7.69;45.84;100610.13;5058867;28;20401;-68
2022/09/30 06:21:12;;;;;;;7.28;4.53;;;;;;;7.71;46.07;100614.47;5053739;28;20056;-68
2022/09/30 06:23:40;;;;;;;5.93;4.15;;;;;;;7.72;46.01;100615.34;5052635;28;20048;-68
2022/09/30 06:26:12;;;;;;;6.65;4.55;;;;;;;7.74;46.50;100614.25;5061180;28;20047;-69
2022/09/30 06:28:41;;;;;;;7.38;5.00;;;;;;;7.75;46.45;100617.84;5064994;28;20051;-69
2022/09/30 06:31:10;;;;;;;6.53;4.30;;;;;;;7.80;46.94;100626.50;5044890;28;20102;-69
2022/09/30 06:33:38;;;;;;;9.70;4.80;;;;;;;7.84;47.59;100631.59;5064809;28;20048;-68
2022/09/30 06:36:06;;;;;;;6.22;4.07;;;;;;;7.94;47.99;100642.59;5046629;28;20056;-68
2022/09/30 06:38:36;;;;;;;7.53;4.60;;;;;;;8.06;48.25;100643.50;5050054;28;20052;-68
2022/09/30 06:41:05;;;;;;;5.65;4.30;;;;;;;8.20;48.96;100644.16;5035666;28;20041;-68
2022/09/30 06:43:34;;;;;;;7.30;4.80;;;;;;;8.41;48.92;100646.13;5063727;28;20044;-68
2022/09/30 06:46:22;;;;;;;6.97;4.35;;;;;;;8.64;49.42;100653.28;5063404;28;20044;-66
2022/09/30 06:48:58;;;;;;;7.18;4.97;;;;;;;8.91;49.36;100658.31;5048597;28;20074;-67
2022/09/30 06:51:40;;;;;;;9.25;5.55;;;;;;;9.19;49.80;100662.28;5063823;28;20047;-66
2022/09/30 06:54:09;;;;;;;7.22;5.30;;;;;;;9.53;49.58;100658.44;5063392;28;20039;-67
2022/09/30 06:56:37;;;;;;;7.13;5.03;;;;;;;9.86;49.35;100665.56;5063847;28;20039;-67
2022/09/30 06:59:06;;;;;;;8.38;6.00;;;;;;;10.21;48.43;100676.13;5065116;28;20518;-67
2022/09/30 07:01:35;;;;;;;7.15;5.47;;;;;;;10.54;48.66;100675.88;5064980;28;20072;-67
2022/09/30 07:04:08;;;;;;;10.68;5.57;;;;;;;10.89;48.40;100680.00;5043547;28;20052;-67
2022/09/30 07:06:37;;;;;;;7.03;5.20;;;;;;;11.23;48.44;100681.31;5060656;28;20059;-68
2022/09/30 07:09:06;;;;;;;8.18;5.30;;;;;;;11.56;47.33;100691.00;5060283;28;20048;-69
2022/09/30 07:11:35;;;;;;;7.25;4.63;;;;;;;11.88;47.07;100690.72;5048197;28;20052;-67
2022/09/30 07:14:04;;;;;;;9.88;5.20;;;;;;;12.19;46.73;100688.63;5065118;28;20067;-68
2022/09/30 07:16:34;;;;;;;7.95;4.70;;;;;;;12.51;46.43;100688.22;5052896;28;20045;-67
2022/09/30 07:19:02;;;;;;;6.35;4.30;;;;;;;12.80;45.94;100688.09;5062130;28;20047;-67
2022/09/30 07:21:30;;;;;;;6.28;4.63;;;;;;;13.06;45.18;100682.72;5065331;28;20102;-67
2022/09/30 07:23:59;;;;;;;6.32;4.15;;;;;;;13.33;44.79;100684.56;5064795;28;20044;-67
2022/09/30 07:26:28;;;;;;;6.15;4.10;;;;;;;13.57;44.20;100690.34;5049133;28;20464;-68
2022/09/30 07:28:56;;;;;;;5.63;4.20;;;;;;;13.74;43.62;100689.47;5053510;28;20049;-68
2022/09/30 07:31:25;;;;;;;5.45;4.00;;;;;;;13.94;43.32;100692.91;5067191;28;20048;-67
2022/09/30 07:34:06;;;;;;;5.65;3.55;;;;;;;14.11;42.41;100688.34;5050904;28;20624;-67
2022/09/30 07:36:35;;;;;;;6.13;3.72;;;;;;;14.23;42.26;100685.19;5057761;28;20044;-69
2022/09/30 07:39:06;;;;;;;5.45;4.00;;;;;;;14.39;42.38;100696.28;5064430;28;20055;-67
2022/09/30 07:41:37;;;;;;;6.75;3.97;;;;;;;14.54;41.65;100699.31;5063066;28;20094;-67
2022/09/30 07:44:09;;;;;;;6.03;4.35;;;;;;;14.67;41.22;100693.38;5059339;28;20586;-67
2022/09/30 07:46:39;;;;;;;7.32;3.88;;;;;;;14.75;41.16;100696.16;5068758;28;20063;-68
2022/09/30 07:49:13;;;;;;;5.45;3.72;;;;;;;14.92;40.17;100702.59;5063883;28;20045;-67
2022/09/30 07:51:44;;;;;;;5.25;3.85;;;;;;;15.00;40.82;100703.50;5059836;28;20083;-67
2022/09/30 07:54:14;;;;;;;5.10;3.55;;;;;;;15.10;40.40;100701.44;5062724;28;20045;-67
2022/09/30 07:56:43;;;;;;;6.18;3.80;;;;;;;15.18;40.10;100686.81;5058708;28;20128;-67
2022/09/30 07:59:32;;;;;;;5.30;3.60;;;;;;;15.24;39.30;100691.69;5048833;28;20052;-67
2022/09/30 08:02:01;;;;;;;5.00;3.58;;;;;;;15.29;39.54;100693.91;5050502;28;20502;-68
2022/09/30 08:04:30;;;;;;;5.57;4.10;;;;;;;15.32;38.59;100697.22;5056400;28;20400;-67
2022/09/30 08:07:00;;;;;;;5.38;3.75;;;;;;;15.34;38.75;100699.84;5064694;28;20040;-67
2022/09/30 08:09:29;;;;;;;4.95;3.75;;;;;;;15.32;38.23;100699.09;5065517;28;20053;-67
2022/09/30 08:11:58;;;;;;;5.78;4.32;;;;;;;15.27;38.09;100701.47;5046153;28;20051;-68
2022/09/30 08:14:27;;;;;;;5.72;4.45;;;;;;;15.24;38.09;100696.31;5064312;28;20052;-67
2022/09/30 08:16:57;;;;;;;6.07;4.13;;;;;;;15.17;38.50;100706.31;5053440;28;20536;-68
2022/09/30 08:19:26;;;;;;;5.50;4.20;;;;;;;15.12;38.39;100706.78;5059791;28;20073;-68
2022/09/30 08:21:56;;;;;;;6.03;3.92;;;;;;;15.07;38.39;100706.44;5059694;28;20037;-67
2022/09/30 08:24:25;;;;;;;6.30;4.05;;;;;;;14.98;38.64;100697.28;5068512;28;20053;-68
2022/09/30 08:26:53;;;;;;;4.90;3.53;;;;;;;14.94;38.70;100700.53;5063342;28;20147;-68
2022/09/30 08:29:21;;;;;;;6.38;3.53;;;;;;;14.89;38.74;100703.78;5069146;28;20511;-68
2022/09/30 08:32:09;;;;;;;4.85;3.63;;;;;;;14.85;38.90;100701.53;5052589;28;20049;-68
2022/09/30 08:34:37;;;;;;;5.07;3.85;;;;;;;14.83;38.96;100696.19;5066196;28;20697;-68
2022/09/30 08:37:08;;;;;;;6.47;3.85;;;;;;;14.84;38.67;100706.19;5062150;28;20071;-68
2022/09/30 08:39:37;;;;;;;5.53;3.85;;;;;;;14.76;38.78;100701.47;5059813;28;20493;-67
2022/09/30 08:42:20;;;;;;;6.32;4.35;;;;;;;14.77;37.98;100705.09;5069716;28;20101;-68
2022/09/30 08:45:19;;;;;;;5.93;3.72;;;;;;;14.71;37.75;100694.75;5062657;28;20401;-68
2022/09/30 08:47:55;;;;;;;5.80;4.28;;;;;;;14.66;38.42;100689.75;5073225;28;20056;-68
2022/09/30 08:50:29;;;;;;;4.97;3.78;;;;;;;14.63;38.48;100701.09;5055208;28;20594;-68
2022/09/30 08:53:01;;;;;;;6.90;4.00;;;;;;;14.61;38.26;100708.66;5059783;28;20119;-68
2022/09/30 08:55:35;;;;;;;5.72;3.63;;;;;;;14.58;38.67;100700.72;5059218;28;20123;-67
2022/09/30 08:58:04;;;;;;;6.95;4.00;;;;;;;14.59;39.34;100709.84;5066690;28;20033;-68
2022/09/30 09:00:34;;;;;;;5.22;3.88;;;;;;;14.60;39.23;100712.41;5062222;28;20048;-68
2022/09/30 09:03:03;;;;;;;6.88;3.55;;;;;;;14.62;39.51;100709.50;5055761;28;20124;-68
2022/09/30 09:05:46;;;;;;;5.93;4.40;;;;;;;14.67;38.49;100709.91;5039574;28;20099;-68
2022/09/30 09:08:29;;;;;;;5.63;3.80;;;;;;;14.70;38.99;100721.44;5065280;28;20106;-68
2022/09/30 09:11:04;;;;;;;5.55;3.97;;;;;;;14.74;39.17;100705.44;5063622;28;20047;-68
2022/09/30 09:13:46;;;;;;;6.43;3.95;;;;;;;14.81;39.13;100712.03;5054960;28;20145;-68
2022/09/30 09:16:21;;;;;;;6.45;4.80;;;;;;;14.82;39.19;100711.00;5067668;28;20140;-68
2022/09/30 09:19:03;;;;;;;7.47;5.57;;;;;;;14.90;38.57;100707.41;5059663;28;20040;-68
2022/09/30 09:21:50;;;;;;;6.07;4.95;;;;;;;14.94;38.05;100706.03;5062871;28;20127;-68
2022/09/30 09:24:22;;;;;;;7.68;4.88;;;;;;;14.96;38.91;100699.34;5068554;28;20036;-68
2022/09/30 09:26:52;;;;;;;7.00;5.07;;;;;;;15.00;39.56;100694.38;5064042;28;20044;-68
2022/09/30 09:29:33;;;;;;;6.80;4.82;;;;;;;15.08;39.06;100703.53;5055045;28;20044;-68
2022/09/30 09:32:02;;;;;;;7.80;5.13;;;;;;;15.11;39.22;100696.78;5061905;28;20049;-67
2022/09/30 09:34:31;;;;;;;7.95;5.05;;;;;;;15.18;39.59;100694.25;5058057;28;20053;-68
2022/09/30 09:37:17;;;;;;;7.63;5.40;;;;;;;15.26;39.09;100688.75;5054553;28;20063;-68
2022/09/30 09:40:11;;;;;;;6.18;4.65;;;;;;;15.28;39.02;100695.81;5061873;28;20045;-68
2022/09/30 09:42:55;;;;;;;6.65;5.03;;;;;;;15.38;38.33;100702.06;5059604;28;20106;-67
2022/09/30 09:45:28;;;;;;;6.95;4.72;;;;;;;15.45;38.75;100694.84;5058515;28;20497;-68
2022/09/30 09:47:58;;;;;;;5.80;4.85;;;;;;;15.49;39.24;100692.63;5043287;28;20066;-68
2022/09/30 09:50:36;;;;;;;6.47;4.55;;;;;;;15.59;38.50;100697.97;5043107;28;20079;-67
2022/09/30 09:53:38;;;;;;;7.30;4.97;;;;;;;15.60;38.57;100688.63;5041794;28;20059;-68
2022/09/30 09:56:17;;;;;;;5.90;4.53;;;;;;;15.72;38.27;100695.56;5063750;28;20123;-67
2022/09/30 09:59:08;;;;;;;7.97;4.38;;;;;;;15.80;38.03;100682.63;5058246;28;20063;-68
2022/09/30 10:01:37;;;;;;;5.75;4.22;;;;;;;15.87;38.50;100699.34;5062948;28;20084;-68
2022/09/30 10:04:18;;;;;;;7.90;4.93;;;;;;;15.96;37.81;100698.31;5054930;28;20460;-68
2022/09/30 10:06:50;;;;;;;6.43;4.53;;;;;;;16.02;38.41;100691.22;5068051;28;20047;-67
2022/09/30 10:09:31;;;;;;;5.55;4.32;;;;;;;16.08;38.21;100696.06;5054000;28;20037;-68
2022/09/30 10:12:34;;;;;;;5.68;3.90;;;;;;;16.08;38.17;100696.06;5064736;28;20123;-68
2022/09/30 10:15:21;;;;;;;5.75;3.97;;;;;;;16.20;37.64;100691.94;4980329;28;20526;-68
2022/09/30 10:17:54;;;;;;;6.78;4.43;;;;;;;16.32;38.18;100687.78;4985144;28;20042;-68
2022/09/30 10:20:29;;;;;;;6.25;4.57;;;;;;;16.40;38.37;100678.63;5034727;28;22705;-69
2022/09/30 10:23:04;;;;;;;5.53;4.35;;;;;;;16.46;37.94;100684.28;5038507;28;20095;-68
2022/09/30 10:25:32;;;;;;;5.97;4.22;;;;;;;16.51;37.98;100689.25;5059168;28;20040;-68
2022/09/30 10:28:15;;;;;;;8.32;5.40;;;;;;;16.55;37.08;100679.59;5064433;28;20048;-68
2022/09/30 10:30:49;;;;;;;5.55;4.43;;;;;;;16.59;37.31;100681.81;5065977;28;20044;-68
2022/09/30 10:33:24;;;;;;;5.20;4.00;;;;;;;16.64;36.91;100686.81;5063406;28;20051;-68
2022/09/30 10:36:17;;;;;;;5.22;4.38;;;;;;;16.69;36.90;100686.28;5056630;28;20147;-68
2022/09/30 10:39:05;;;;;;;7.40;4.22;;;;;;;16.71;37.19;100674.00;5054896;28;20051;-68
2022/09/30 10:41:36;;;;;;;5.50;4.07;;;;;;;16.76;37.92;100676.22;5059645;28;20131;-68
2022/09/30 10:44:15;;;;;;;6.70;3.83;;;;;;;16.83;37.18;100677.22;5066329;28;20048;-67
2022/09/30 10:46:46;;;;;;;5.75;4.30;;;;;;;16.88;37.29;100672.03;5065138;28;20094;-68
2022/09/30 10:49:26;;;;;;;6.78;3.88;;;;;;;16.94;36.70;100674.06;5059545;28;20287;-74
2022/09/30 10:51:54;;;;;;;5.47;3.83;;;;;;;16.95;37.26;100678.56;5063215;28;20086;-74
2022/09/30 10:54:45;;;;;;;6.85;4.00;;;;;;;17.01;37.23;100684.25;5059813;28;20105;-72
2022/09/30 10:57:16;;;;;;;5.00;4.05;;;;;;;17.08;36.66;100683.53;5057652;28;20044;-72
2022/09/30 10:59:46;;;;;;;5.13;3.60;;;;;;;17.14;37.26;100677.28;5056705;28;20627;-71
2022/09/30 11:02:29;;;;;;;5.13;3.40;;;;;;;17.18;36.56;100678.63;5057124;28;20048;-71
2022/09/30 11:05:03;;;;;;;;;;;;;;;16.90;37.58;100681.03;5064474;28;20126;-71
2022/09/30 11:07:37;;;;;;;4.10;2.90;;;;;;;17.22;37.64;100688.31;5055820;28;19928;-72
2022/09/30 11:10:14;;;;;;;5.13;3.63;;;;;;;17.30;37.11;100689.13;5058392;28;20036;-72
2022/09/30 11:12:47;;;;;;;6.10;3.38;;;;;;;17.35;36.79;100696.84;5064765;28;20048;-72
2022/09/30 11:15:22;;;;;;;6.47;3.78;;;;;;;17.44;36.50;100708.75;5049874;28;20044;-72
2022/09/30 11:17:57;;;;;;;5.47;3.17;;;;;;;17.47;36.15;100700.94;5063979;28;20537;-71
2022/09/30 11:20:29;;;;;;;6.45;3.28;;;;;;;17.51;36.34;100701.41;5043984;28;20047;-71
2022/09/30 11:23:03;;;;;;;4.93;3.30;;;;;;;17.54;36.04;100699.16;5043650;28;20457;-71
2022/09/30 11:25:39;;;;;;;5.22;3.28;;;;;;;17.59;36.06;100688.38;5054365;28;20839;-71
2022/09/30 11:28:35;;;;;;;4.47;3.08;;;;;;;17.62;36.11;100698.25;5063018;28;20051;-71
2022/09/30 11:31:15;;;;;;;5.85;3.47;;;;;;;17.67;35.56;100695.75;5042041;28;20052;-71
2022/09/30 11:33:58;;;;;;;5.65;3.47;;;;;;;17.72;35.29;100696.97;5056825;28;20036;-71
2022/09/30 11:36:31;;;;;;;;;;;;;;;17.46;37.13;100695.59;5069927;28;20055;-71
2022/09/30 11:39:18;;;;;;;6.80;3.13;;;;;;;17.76;35.58;100700.22;5067763;28;20426;-71
2022/09/30 11:41:54;;;;;;;4.80;3.40;;;;;;;17.81;35.67;100696.94;5042488;28;20052;-71
2022/09/30 11:44:30;;;;;;;5.47;3.58;;;;;;;17.83;35.07;100689.28;5061336;28;20045;-71
2022/09/30 11:47:29;;;;;;;4.80;2.95;;;;;;;17.79;35.15;100683.25;5052067;28;20131;-71
2022/09/30 11:50:17;;;;;;;5.93;3.45;;;;;;;17.82;35.58;100685.63;5049788;28;20110;-71
2022/09/30 11:52:56;;;;;;;5.10;3.70;;;;;;;17.84;35.12;100679.91;5054992;28;20132;-71
2022/09/30 11:55:43;;;;;;;5.95;3.60;;;;;;;17.85;35.22;100674.22;5046847;28;20090;-71
2022/09/30 11:58:14;;;;;;;6.53;3.50;;;;;;;17.86;35.13;100673.16;5051429;28;20033;-71
2022/09/30 12:01:14;;;;;;;4.60;3.03;;;;;;;17.90;34.83;100671.72;5065300;28;20590;-71
2022/09/30 12:03:48;;;;;;;6.18;3.35;;;;;;;17.93;34.67;100665.81;5045295;28;20052;-71